SCDA 160500Z 13002KT 9999 BKN033 19/13 Q1015